Brkston, Minnesota
Current Conditions -  °F | °C
As of 6:36 PM on Monday 24 Nov 2014 (Local Time) from KCOQ Reporting Station
Light Snow Light Snow  
Wind Chill:   Ceiling: 5000
Heat Index: 18°   Visibility: 10mi
Dew Point: 12°   Wind: 15mph
Humidity: 79%   Direction: 330°NNW
Pressure: 29.67"   Gusts: 29mph
Location:  46.8211°N, 92.6871°W
Report Text: KCOQ 250036Z AUTO 33013G25KT 10SM -SN SCT022 OVC050 M08/M11 A2967 RMK AO2
Loading
Personal Weather Stations






























Interactive Weather Map New forecast layout! Learn more

10-Day Weather Forecast

Advertisements
Track Severe Weather on mobile